sensor_id;sensor_type;location;lat;lon;timestamp;temperature;humidity
5621;DHT22;2832;50.864;12.186;2023-04-16T02:43:27;11.70;99.90
5621;DHT22;2832;50.864;12.186;2023-04-16T02:45:56;11.80;99.90
5621;DHT22;2832;50.864;12.186;2023-04-16T02:48:24;11.90;99.90
5621;DHT22;2832;50.864;12.186;2023-04-16T02:50:53;11.90;99.90
5621;DHT22;2832;50.864;12.186;2023-04-16T02:53:30;11.80;99.90
5621;DHT22;2832;50.864;12.186;2023-04-16T02:55:58;11.80;99.90
5621;DHT22;2832;50.864;12.186;2023-04-16T02:58:27;11.80;99.90
5621;DHT22;2832;50.864;12.186;2023-04-16T03:00:55;11.80;99.90
5621;DHT22;2832;50.864;12.186;2023-04-16T03:03:23;11.80;99.90
5621;DHT22;2832;50.864;12.186;2023-04-16T03:05:52;11.70;99.90
5621;DHT22;2832;50.864;12.186;2023-04-16T03:08:20;11.70;99.90
5621;DHT22;2832;50.864;12.186;2023-04-16T03:10:48;11.70;99.90
5621;DHT22;2832;50.864;12.186;2023-04-16T03:13:16;11.70;99.90
5621;DHT22;2832;50.864;12.186;2023-04-16T03:15:48;11.70;99.90
5621;DHT22;2832;50.864;12.186;2023-04-16T03:18:16;11.70;99.90
5621;DHT22;2832;50.864;12.186;2023-04-16T03:20:45;11.80;99.90
5621;DHT22;2832;50.864;12.186;2023-04-16T03:23:18;11.80;99.90
5621;DHT22;2832;50.864;12.186;2023-04-16T03:25:51;11.80;99.90
5621;DHT22;2832;50.864;12.186;2023-04-16T03:28:21;11.80;99.90
5621;DHT22;2832;50.864;12.186;2023-04-16T03:30:56;11.70;99.90
5621;DHT22;2832;50.864;12.186;2023-04-16T03:33:29;11.80;99.90
5621;DHT22;2832;50.864;12.186;2023-04-16T03:35:58;11.80;99.90
5621;DHT22;2832;50.864;12.186;2023-04-16T03:38:26;11.80;99.90
5621;DHT22;2832;50.864;12.186;2023-04-16T03:40:54;11.80;99.90
5621;DHT22;2832;50.864;12.186;2023-04-16T05:43:57;11.70;99.90
5621;DHT22;2832;50.864;12.186;2023-04-16T05:46:25;11.70;99.90
5621;DHT22;2832;50.864;12.186;2023-04-16T05:48:54;11.60;99.90
5621;DHT22;2832;50.864;12.186;2023-04-16T05:51:22;11.60;99.90
5621;DHT22;2832;50.864;12.186;2023-04-16T05:53:51;11.60;99.90
5621;DHT22;2832;50.864;12.186;2023-04-16T05:56:20;11.50;99.90
5621;DHT22;2832;50.864;12.186;2023-04-16T05:58:49;11.60;99.90
5621;DHT22;2832;50.864;12.186;2023-04-16T06:01:18;11.70;99.90
5621;DHT22;2832;50.864;12.186;2023-04-16T06:03:46;11.70;99.90
5621;DHT22;2832;50.864;12.186;2023-04-16T06:06:14;11.80;99.90
5621;DHT22;2832;50.864;12.186;2023-04-16T06:08:45;11.70;99.90
5621;DHT22;2832;50.864;12.186;2023-04-16T06:11:13;11.70;99.90
5621;DHT22;2832;50.864;12.186;2023-04-16T06:13:44;11.60;99.90
5621;DHT22;2832;50.864;12.186;2023-04-16T06:16:13;11.60;99.90
5621;DHT22;2832;50.864;12.186;2023-04-16T06:18:43;11.60;99.90
5621;DHT22;2832;50.864;12.186;2023-04-16T06:21:12;11.60;99.90
5621;DHT22;2832;50.864;12.186;2023-04-16T06:23:41;11.70;99.90
5621;DHT22;2832;50.864;12.186;2023-04-16T06:26:10;11.70;99.90
5621;DHT22;2832;50.864;12.186;2023-04-16T06:28:38;11.70;99.90
5621;DHT22;2832;50.864;12.186;2023-04-16T06:31:07;11.70;99.90
5621;DHT22;2832;50.864;12.186;2023-04-16T06:33:35;11.60;99.90
5621;DHT22;2832;50.864;12.186;2023-04-16T06:36:05;11.70;99.90
5621;DHT22;2832;50.864;12.186;2023-04-16T06:38:33;11.70;99.90
5621;DHT22;2832;50.864;12.186;2023-04-16T06:41:01;11.70;99.90
5621;DHT22;2832;50.864;12.186;2023-04-16T06:43:30;11.70;99.90
5621;DHT22;2832;50.864;12.186;2023-04-16T08:44:36;11.60;99.90
5621;DHT22;2832;50.864;12.186;2023-04-16T08:47:18;11.60;99.90
5621;DHT22;2832;50.864;12.186;2023-04-16T08:50:10;11.60;99.90
5621;DHT22;2832;50.864;12.186;2023-04-16T08:52:52;11.60;99.90
5621;DHT22;2832;50.864;12.186;2023-04-16T08:55:30;11.50;99.90
5621;DHT22;2832;50.864;12.186;2023-04-16T08:58:00;11.60;99.90
5621;DHT22;2832;50.864;12.186;2023-04-16T09:00:57;11.50;99.90
5621;DHT22;2832;50.864;12.186;2023-04-16T09:03:30;11.50;99.90
5621;DHT22;2832;50.864;12.186;2023-04-16T09:06:00;11.50;99.90
5621;DHT22;2832;50.864;12.186;2023-04-16T09:08:29;11.50;99.90
5621;DHT22;2832;50.864;12.186;2023-04-16T09:10:57;11.60;99.90
5621;DHT22;2832;50.864;12.186;2023-04-16T09:13:30;11.60;99.90
5621;DHT22;2832;50.864;12.186;2023-04-16T09:16:15;11.70;99.90
5621;DHT22;2832;50.864;12.186;2023-04-16T09:18:51;11.70;99.90
5621;DHT22;2832;50.864;12.186;2023-04-16T09:21:21;11.60;99.90
5621;DHT22;2832;50.864;12.186;2023-04-16T09:23:54;11.60;99.90
5621;DHT22;2832;50.864;12.186;2023-04-16T09:26:22;11.60;99.90
5621;DHT22;2832;50.864;12.186;2023-04-16T09:28:51;11.60;99.90
5621;DHT22;2832;50.864;12.186;2023-04-16T09:31:21;11.60;99.90
5621;DHT22;2832;50.864;12.186;2023-04-16T09:34:02;11.60;99.90
5621;DHT22;2832;50.864;12.186;2023-04-16T09:36:31;11.60;99.90
5621;DHT22;2832;50.864;12.186;2023-04-16T09:39:01;11.60;99.90
5621;DHT22;2832;50.864;12.186;2023-04-16T09:41:30;11.60;99.90
5621;DHT22;2832;50.864;12.186;2023-04-16T09:44:02;11.70;99.90
5621;DHT22;2832;50.864;12.186;2023-04-16T10:45:56;11.70;99.90
5621;DHT22;2832;50.864;12.186;2023-04-16T10:48:24;11.70;99.90
5621;DHT22;2832;50.864;12.186;2023-04-16T10:50:56;11.60;99.90
5621;DHT22;2832;50.864;12.186;2023-04-16T10:53:26;11.60;99.90
5621;DHT22;2832;50.864;12.186;2023-04-16T10:55:56;11.60;99.90
5621;DHT22;2832;50.864;12.186;2023-04-16T10:58:27;11.60;99.90
5621;DHT22;2832;50.864;12.186;2023-04-16T11:00:59;11.60;99.90
5621;DHT22;2832;50.864;12.186;2023-04-16T11:03:32;11.60;99.90
5621;DHT22;2832;50.864;12.186;2023-04-16T11:06:14;11.70;99.90
5621;DHT22;2832;50.864;12.186;2023-04-16T11:08:43;11.70;99.90
5621;DHT22;2832;50.864;12.186;2023-04-16T11:11:12;11.70;99.90
5621;DHT22;2832;50.864;12.186;2023-04-16T11:13:42;11.70;99.90
5621;DHT22;2832;50.864;12.186;2023-04-16T11:16:13;11.60;99.90
5621;DHT22;2832;50.864;12.186;2023-04-16T11:18:41;11.60;99.90
5621;DHT22;2832;50.864;12.186;2023-04-16T11:21:11;11.60;99.90
5621;DHT22;2832;50.864;12.186;2023-04-16T11:23:47;11.60;99.90
5621;DHT22;2832;50.864;12.186;2023-04-16T11:26:26;11.70;99.90
5621;DHT22;2832;50.864;12.186;2023-04-16T11:28:56;11.70;99.90
5621;DHT22;2832;50.864;12.186;2023-04-16T11:31:27;11.70;99.90
5621;DHT22;2832;50.864;12.186;2023-04-16T11:33:57;11.70;99.90
5621;DHT22;2832;50.864;12.186;2023-04-16T11:36:43;11.70;99.90
5621;DHT22;2832;50.864;12.186;2023-04-16T11:39:11;11.80;99.90
5621;DHT22;2832;50.864;12.186;2023-04-16T11:41:42;11.80;99.90
5621;DHT22;2832;50.864;12.186;2023-04-16T11:44:20;11.70;99.90
5621;DHT22;2832;50.864;12.186;2023-04-16T13:45:45;12.00;99.90
5621;DHT22;2832;50.864;12.186;2023-04-16T13:48:14;11.90;99.90
5621;DHT22;2832;50.864;12.186;2023-04-16T13:50:44;11.90;99.90
5621;DHT22;2832;50.864;12.186;2023-04-16T13:53:11;12.00;99.90
5621;DHT22;2832;50.864;12.186;2023-04-16T13:55:39;12.00;99.90
5621;DHT22;2832;50.864;12.186;2023-04-16T13:58:15;11.90;99.90
5621;DHT22;2832;50.864;12.186;2023-04-16T14:00:44;12.00;99.90
5621;DHT22;2832;50.864;12.186;2023-04-16T14:03:12;11.90;99.90
5621;DHT22;2832;50.864;12.186;2023-04-16T14:05:41;11.90;99.90
5621;DHT22;2832;50.864;12.186;2023-04-16T14:08:10;11.90;99.90
5621;DHT22;2832;50.864;12.186;2023-04-16T14:10:40;11.90;99.90
5621;DHT22;2832;50.864;12.186;2023-04-16T14:13:08;11.90;99.90
5621;DHT22;2832;50.864;12.186;2023-04-16T14:15:38;11.80;99.90
5621;DHT22;2832;50.864;12.186;2023-04-16T14:18:10;11.80;99.90
5621;DHT22;2832;50.864;12.186;2023-04-16T14:20:39;11.80;99.90
5621;DHT22;2832;50.864;12.186;2023-04-16T14:23:07;11.90;99.90
5621;DHT22;2832;50.864;12.186;2023-04-16T14:25:35;11.80;99.90
5621;DHT22;2832;50.864;12.186;2023-04-16T14:28:03;11.90;99.90
5621;DHT22;2832;50.864;12.186;2023-04-16T14:30:31;11.90;99.90
5621;DHT22;2832;50.864;12.186;2023-04-16T14:33:00;11.90;99.90
5621;DHT22;2832;50.864;12.186;2023-04-16T14:35:34;12.00;99.90
5621;DHT22;2832;50.864;12.186;2023-04-16T14:38:04;12.00;99.90
5621;DHT22;2832;50.864;12.186;2023-04-16T14:40:32;12.00;99.90
5621;DHT22;2832;50.864;12.186;2023-04-16T14:43:02;11.90;99.90
5621;DHT22;2832;50.864;12.186;2023-04-16T14:45:32;12.00;99.90
5621;DHT22;2832;50.864;12.186;2023-04-16T15:47:28;12.00;99.90
5621;DHT22;2832;50.864;12.186;2023-04-16T15:49:59;12.00;99.90
5621;DHT22;2832;50.864;12.186;2023-04-16T15:52:30;12.00;99.90
5621;DHT22;2832;50.864;12.186;2023-04-16T15:55:02;12.00;99.90
5621;DHT22;2832;50.864;12.186;2023-04-16T15:57:31;12.10;99.90
5621;DHT22;2832;50.864;12.186;2023-04-16T15:59:59;12.10;99.90
5621;DHT22;2832;50.864;12.186;2023-04-16T16:02:28;12.10;99.90
5621;DHT22;2832;50.864;12.186;2023-04-16T16:04:56;12.10;99.90
5621;DHT22;2832;50.864;12.186;2023-04-16T16:07:43;12.10;99.90
5621;DHT22;2832;50.864;12.186;2023-04-16T16:10:12;12.10;99.90
5621;DHT22;2832;50.864;12.186;2023-04-16T16:12:40;12.10;99.90
5621;DHT22;2832;50.864;12.186;2023-04-16T16:15:17;12.10;99.90
5621;DHT22;2832;50.864;12.186;2023-04-16T16:17:52;12.00;99.90
5621;DHT22;2832;50.864;12.186;2023-04-16T16:20:22;12.00;99.90
5621;DHT22;2832;50.864;12.186;2023-04-16T16:22:51;12.00;99.90
5621;DHT22;2832;50.864;12.186;2023-04-16T16:25:19;12.00;99.90
5621;DHT22;2832;50.864;12.186;2023-04-16T16:27:49;12.00;99.90
5621;DHT22;2832;50.864;12.186;2023-04-16T16:30:18;12.00;99.90
5621;DHT22;2832;50.864;12.186;2023-04-16T16:33:18;12.10;99.90
5621;DHT22;2832;50.864;12.186;2023-04-16T16:35:45;12.00;99.90
5621;DHT22;2832;50.864;12.186;2023-04-16T16:38:13;12.10;99.90
5621;DHT22;2832;50.864;12.186;2023-04-16T16:40:41;12.10;99.90
5621;DHT22;2832;50.864;12.186;2023-04-16T16:43:09;12.10;99.90
5621;DHT22;2832;50.864;12.186;2023-04-16T16:45:38;12.10;99.90
5621;DHT22;2832;50.864;12.186;2023-04-16T16:48:13;12.10;99.90
5621;DHT22;2832;50.864;12.186;2023-04-16T16:51:01;12.10;99.90
5621;DHT22;2832;50.864;12.186;2023-04-16T16:53:29;12.10;99.90
5621;DHT22;2832;50.864;12.186;2023-04-16T16:55:57;12.00;99.90
5621;DHT22;2832;50.864;12.186;2023-04-16T16:58:25;12.00;99.90
5621;DHT22;2832;50.864;12.186;2023-04-16T17:00:53;12.00;99.90
5621;DHT22;2832;50.864;12.186;2023-04-16T17:03:21;12.10;99.90
5621;DHT22;2832;50.864;12.186;2023-04-16T17:05:49;12.00;99.90
5621;DHT22;2832;50.864;12.186;2023-04-16T17:08:23;12.00;99.90
5621;DHT22;2832;50.864;12.186;2023-04-16T17:10:55;12.10;99.90
5621;DHT22;2832;50.864;12.186;2023-04-16T17:13:23;12.10;99.90
5621;DHT22;2832;50.864;12.186;2023-04-16T17:15:51;12.20;99.90
5621;DHT22;2832;50.864;12.186;2023-04-16T17:18:19;12.10;99.90
5621;DHT22;2832;50.864;12.186;2023-04-16T17:20:51;12.10;99.90
5621;DHT22;2832;50.864;12.186;2023-04-16T17:23:20;12.20;99.90
5621;DHT22;2832;50.864;12.186;2023-04-16T17:25:49;12.10;99.90
5621;DHT22;2832;50.864;12.186;2023-04-16T17:28:18;12.20;99.90
5621;DHT22;2832;50.864;12.186;2023-04-16T17:30:50;12.20;99.90
5621;DHT22;2832;50.864;12.186;2023-04-16T17:33:19;12.20;99.90
5621;DHT22;2832;50.864;12.186;2023-04-16T17:35:48;12.10;99.90
5621;DHT22;2832;50.864;12.186;2023-04-16T17:38:17;12.10;99.90
5621;DHT22;2832;50.864;12.186;2023-04-16T17:40:57;12.10;99.90
5621;DHT22;2832;50.864;12.186;2023-04-16T17:43:42;12.20;99.90
5621;DHT22;2832;50.864;12.186;2023-04-16T17:46:10;12.20;99.90
5621;DHT22;2832;50.864;12.186;2023-04-16T18:47:52;12.10;99.90
5621;DHT22;2832;50.864;12.186;2023-04-16T18:50:24;12.10;99.90
5621;DHT22;2832;50.864;12.186;2023-04-16T18:52:54;12.00;99.90
5621;DHT22;2832;50.864;12.186;2023-04-16T18:55:23;12.10;99.90
5621;DHT22;2832;50.864;12.186;2023-04-16T18:57:52;12.10;99.90
5621;DHT22;2832;50.864;12.186;2023-04-16T19:00:24;12.10;99.90
5621;DHT22;2832;50.864;12.186;2023-04-16T19:02:56;12.10;99.90
5621;DHT22;2832;50.864;12.186;2023-04-16T19:05:25;12.20;99.90
5621;DHT22;2832;50.864;12.186;2023-04-16T19:07:57;12.20;99.90
5621;DHT22;2832;50.864;12.186;2023-04-16T19:10:26;12.20;99.90
5621;DHT22;2832;50.864;12.186;2023-04-16T19:12:55;12.20;99.90
5621;DHT22;2832;50.864;12.186;2023-04-16T19:15:24;12.10;99.90
5621;DHT22;2832;50.864;12.186;2023-04-16T19:17:55;12.10;99.90
5621;DHT22;2832;50.864;12.186;2023-04-16T19:20:24;12.10;99.90
5621;DHT22;2832;50.864;12.186;2023-04-16T19:22:52;12.10;99.90
5621;DHT22;2832;50.864;12.186;2023-04-16T19:25:21;12.00;99.90
5621;DHT22;2832;50.864;12.186;2023-04-16T19:27:50;12.00;99.90
5621;DHT22;2832;50.864;12.186;2023-04-16T19:30:18;12.00;99.90
5621;DHT22;2832;50.864;12.186;2023-04-16T19:32:47;12.00;99.90
5621;DHT22;2832;50.864;12.186;2023-04-16T19:35:19;12.00;99.90
5621;DHT22;2832;50.864;12.186;2023-04-16T19:37:50;12.10;99.90
5621;DHT22;2832;50.864;12.186;2023-04-16T19:40:22;12.10;99.90
5621;DHT22;2832;50.864;12.186;2023-04-16T19:43:01;12.10;99.90
5621;DHT22;2832;50.864;12.186;2023-04-16T19:45:42;12.20;99.90
5621;DHT22;2832;50.864;12.186;2023-04-16T19:48:11;12.20;99.90
5621;DHT22;2832;50.864;12.186;2023-04-16T19:50:42;12.20;99.90
5621;DHT22;2832;50.864;12.186;2023-04-16T19:53:13;12.20;99.90
5621;DHT22;2832;50.864;12.186;2023-04-16T19:55:43;12.20;99.90
5621;DHT22;2832;50.864;12.186;2023-04-16T19:58:17;12.10;99.90
5621;DHT22;2832;50.864;12.186;2023-04-16T20:00:47;12.10;99.90
5621;DHT22;2832;50.864;12.186;2023-04-16T20:03:16;12.10;99.90
5621;DHT22;2832;50.864;12.186;2023-04-16T20:05:48;12.10;99.90
5621;DHT22;2832;50.864;12.186;2023-04-16T20:08:17;12.10;99.90
5621;DHT22;2832;50.864;12.186;2023-04-16T20:10:46;12.10;99.90
5621;DHT22;2832;50.864;12.186;2023-04-16T20:13:16;12.10;99.90
5621;DHT22;2832;50.864;12.186;2023-04-16T20:15:45;12.10;99.90
5621;DHT22;2832;50.864;12.186;2023-04-16T20:18:13;12.10;99.90
5621;DHT22;2832;50.864;12.186;2023-04-16T20:20:45;12.10;99.90
5621;DHT22;2832;50.864;12.186;2023-04-16T20:23:20;12.20;99.90
5621;DHT22;2832;50.864;12.186;2023-04-16T20:25:52;12.20;99.90
5621;DHT22;2832;50.864;12.186;2023-04-16T20:28:20;12.10;99.90
5621;DHT22;2832;50.864;12.186;2023-04-16T20:30:51;12.10;99.90
5621;DHT22;2832;50.864;12.186;2023-04-16T20:33:23;12.10;99.90
5621;DHT22;2832;50.864;12.186;2023-04-16T20:35:52;12.10;99.90
5621;DHT22;2832;50.864;12.186;2023-04-16T20:38:30;12.10;99.90
5621;DHT22;2832;50.864;12.186;2023-04-16T20:41:04;12.00;99.90
5621;DHT22;2832;50.864;12.186;2023-04-16T20:43:41;12.00;99.90
5621;DHT22;2832;50.864;12.186;2023-04-16T20:46:12;12.00;99.90
5621;DHT22;2832;50.864;12.186;2023-04-16T20:48:41;12.10;99.90
5621;DHT22;2832;50.864;12.186;2023-04-16T20:51:09;12.00;99.90
5621;DHT22;2832;50.864;12.186;2023-04-16T20:53:45;12.10;99.90
5621;DHT22;2832;50.864;12.186;2023-04-16T20:56:16;12.00;99.90
5621;DHT22;2832;50.864;12.186;2023-04-16T20:58:47;12.10;99.90
5621;DHT22;2832;50.864;12.186;2023-04-16T21:01:16;12.00;99.90
5621;DHT22;2832;50.864;12.186;2023-04-16T21:03:47;12.10;99.90
5621;DHT22;2832;50.864;12.186;2023-04-16T21:06:16;12.10;99.90
5621;DHT22;2832;50.864;12.186;2023-04-16T21:08:50;12.10;99.90
5621;DHT22;2832;50.864;12.186;2023-04-16T21:11:18;12.10;99.90
5621;DHT22;2832;50.864;12.186;2023-04-16T21:13:46;12.10;99.90
5621;DHT22;2832;50.864;12.186;2023-04-16T21:16:33;12.10;99.90
5621;DHT22;2832;50.864;12.186;2023-04-16T21:19:04;12.10;99.90
5621;DHT22;2832;50.864;12.186;2023-04-16T21:21:34;12.10;99.90
5621;DHT22;2832;50.864;12.186;2023-04-16T21:24:07;12.00;99.90
5621;DHT22;2832;50.864;12.186;2023-04-16T21:26:37;12.10;99.90
5621;DHT22;2832;50.864;12.186;2023-04-16T21:29:06;12.10;99.90
5621;DHT22;2832;50.864;12.186;2023-04-16T21:31:34;12.00;99.90
5621;DHT22;2832;50.864;12.186;2023-04-16T21:34:03;12.10;99.90
5621;DHT22;2832;50.864;12.186;2023-04-16T21:36:31;12.10;99.90
5621;DHT22;2832;50.864;12.186;2023-04-16T21:39:00;12.10;99.90
5621;DHT22;2832;50.864;12.186;2023-04-16T21:41:31;12.10;99.90
5621;DHT22;2832;50.864;12.186;2023-04-16T21:44:00;12.10;99.90
5621;DHT22;2832;50.864;12.186;2023-04-16T21:46:28;12.10;99.90
5621;DHT22;2832;50.864;12.186;2023-04-16T21:48:56;12.10;99.90
5621;DHT22;2832;50.864;12.186;2023-04-16T21:51:25;12.00;99.90
5621;DHT22;2832;50.864;12.186;2023-04-16T21:53:55;12.00;99.90
5621;DHT22;2832;50.864;12.186;2023-04-16T21:56:26;12.00;99.90
5621;DHT22;2832;50.864;12.186;2023-04-16T21:58:57;12.10;99.90
5621;DHT22;2832;50.864;12.186;2023-04-16T22:01:28;12.00;99.90
5621;DHT22;2832;50.864;12.186;2023-04-16T22:03:59;12.00;99.90
5621;DHT22;2832;50.864;12.186;2023-04-16T22:06:28;12.00;99.90
5621;DHT22;2832;50.864;12.186;2023-04-16T22:09:00;12.00;99.90
5621;DHT22;2832;50.864;12.186;2023-04-16T22:11:30;12.00;99.90
5621;DHT22;2832;50.864;12.186;2023-04-16T22:13:59;12.00;99.90
5621;DHT22;2832;50.864;12.186;2023-04-16T22:16:33;12.10;99.90
5621;DHT22;2832;50.864;12.186;2023-04-16T22:19:01;12.00;99.90
5621;DHT22;2832;50.864;12.186;2023-04-16T22:21:33;12.00;99.90
5621;DHT22;2832;50.864;12.186;2023-04-16T22:24:02;12.00;99.90
5621;DHT22;2832;50.864;12.186;2023-04-16T22:26:30;12.10;99.90
5621;DHT22;2832;50.864;12.186;2023-04-16T22:29:00;12.10;99.90
5621;DHT22;2832;50.864;12.186;2023-04-16T22:31:29;12.10;99.90
5621;DHT22;2832;50.864;12.186;2023-04-16T22:33:58;12.00;99.90
5621;DHT22;2832;50.864;12.186;2023-04-16T22:36:26;12.00;99.90
5621;DHT22;2832;50.864;12.186;2023-04-16T22:38:55;12.10;99.90
5621;DHT22;2832;50.864;12.186;2023-04-16T22:41:23;12.10;99.90
5621;DHT22;2832;50.864;12.186;2023-04-16T22:43:52;12.10;99.90
5621;DHT22;2832;50.864;12.186;2023-04-16T22:46:22;12.10;99.90
5621;DHT22;2832;50.864;12.186;2023-04-16T22:48:52;12.10;99.90
5621;DHT22;2832;50.864;12.186;2023-04-16T22:51:20;12.00;99.90
5621;DHT22;2832;50.864;12.186;2023-04-16T22:53:49;12.10;99.90
5621;DHT22;2832;50.864;12.186;2023-04-16T22:56:18;12.00;99.90
5621;DHT22;2832;50.864;12.186;2023-04-16T22:58:47;12.00;99.90
5621;DHT22;2832;50.864;12.186;2023-04-16T23:01:18;12.00;99.90
5621;DHT22;2832;50.864;12.186;2023-04-16T23:03:51;12.00;99.90
5621;DHT22;2832;50.864;12.186;2023-04-16T23:06:20;12.00;99.90
5621;DHT22;2832;50.864;12.186;2023-04-16T23:08:49;12.00;99.90
5621;DHT22;2832;50.864;12.186;2023-04-16T23:11:18;12.00;99.90
5621;DHT22;2832;50.864;12.186;2023-04-16T23:13:46;12.10;99.90
5621;DHT22;2832;50.864;12.186;2023-04-16T23:16:16;12.10;99.90
5621;DHT22;2832;50.864;12.186;2023-04-16T23:18:54;12.10;99.90
5621;DHT22;2832;50.864;12.186;2023-04-16T23:21:23;12.00;99.90
5621;DHT22;2832;50.864;12.186;2023-04-16T23:23:52;12.00;99.90
5621;DHT22;2832;50.864;12.186;2023-04-16T23:26:19;12.00;99.90
5621;DHT22;2832;50.864;12.186;2023-04-16T23:28:48;11.90;99.90
5621;DHT22;2832;50.864;12.186;2023-04-16T23:31:21;12.00;99.90
5621;DHT22;2832;50.864;12.186;2023-04-16T23:34:07;12.00;99.90
5621;DHT22;2832;50.864;12.186;2023-04-16T23:36:37;12.00;99.90
5621;DHT22;2832;50.864;12.186;2023-04-16T23:39:07;12.00;99.90
5621;DHT22;2832;50.864;12.186;2023-04-16T23:41:35;12.00;99.90
5621;DHT22;2832;50.864;12.186;2023-04-16T23:44:04;12.00;99.90
5621;DHT22;2832;50.864;12.186;2023-04-16T23:46:36;12.00;99.90
5621;DHT22;2832;50.864;12.186;2023-04-16T23:49:12;12.00;99.90
5621;DHT22;2832;50.864;12.186;2023-04-16T23:51:41;12.00;99.90
5621;DHT22;2832;50.864;12.186;2023-04-16T23:54:18;11.90;99.90
5621;DHT22;2832;50.864;12.186;2023-04-16T23:56:50;11.90;99.90
5621;DHT22;2832;50.864;12.186;2023-04-16T23:59:18;11.90;99.90
